createdAt,value
2018-07-25T00:01:07.606Z,97066.32
2018-07-25T00:03:36.331Z,97063.26
2018-07-25T00:06:05.118Z,97062.33
2018-07-25T00:08:33.875Z,97068.19
2018-07-25T00:11:02.676Z,97067.16
2018-07-25T00:13:31.383Z,97064.83
2018-07-25T00:16:01.345Z,97067.14
2018-07-25T00:18:30.033Z,97071.05
2018-07-25T00:20:58.856Z,97065.75
2018-07-25T00:23:27.612Z,97069.20
2018-07-25T00:25:56.406Z,97069.42
2018-07-25T00:31:16.375Z,97072.09
2018-07-25T00:33:45.219Z,97062.67
2018-07-25T00:36:14.074Z,97059.25
2018-07-25T00:38:42.880Z,97059.92
2018-07-25T00:44:01.831Z,97063.67
2018-07-25T00:46:31.262Z,97065.66
2018-07-25T00:49:00.081Z,97068.50
2018-07-25T00:51:28.923Z,97070.69
2018-07-25T00:53:58.380Z,97066.22
2018-07-25T00:56:27.099Z,97067.81
2018-07-25T00:58:55.948Z,97063.38
2018-07-25T01:01:25.150Z,97068.19
2018-07-25T01:03:53.864Z,97073.33
2018-07-25T01:06:22.797Z,97069.34
2018-07-25T01:08:51.654Z,97070.05
2018-07-25T01:11:20.434Z,97062.12
2018-07-25T01:13:49.258Z,97068.20
2018-07-25T01:16:18.314Z,97070.88
2018-07-25T01:18:47.138Z,97076.92
2018-07-25T01:21:15.884Z,97080.13
2018-07-25T01:23:44.703Z,97075.78
2018-07-25T01:26:13.500Z,97069.95
2018-07-25T01:28:42.496Z,97077.75
2018-07-25T01:31:11.258Z,97078.90
2018-07-25T01:33:40.118Z,97080.95
2018-07-25T01:36:08.890Z,97082.34
2018-07-25T01:38:37.703Z,97073.77
2018-07-25T01:41:06.504Z,97076.62
2018-07-25T01:43:35.216Z,97074.56
2018-07-25T01:46:04.095Z,97073.11
2018-07-25T01:48:32.828Z,97081.22
2018-07-25T01:51:01.538Z,97092.56
2018-07-25T01:53:30.296Z,97090.06
2018-07-25T01:55:59.082Z,97086.73
2018-07-25T01:58:28.566Z,97087.91
2018-07-25T02:00:57.297Z,97088.44
2018-07-25T02:03:26.012Z,97087.09
2018-07-25T02:05:54.860Z,97093.30
2018-07-25T02:08:23.732Z,97085.50
2018-07-25T02:10:52.640Z,97085.25
2018-07-25T02:13:21.708Z,97080.47
2018-07-25T02:15:51.079Z,97084.84
2018-07-25T02:18:19.908Z,97085.86
2018-07-25T02:20:48.676Z,97085.76
2018-07-25T02:23:17.541Z,97083.82
2018-07-25T02:25:46.387Z,97081.77
2018-07-25T02:28:15.264Z,97079.23
2018-07-25T02:30:44.004Z,97085.76
2018-07-25T02:33:12.762Z,97077.05
2018-07-25T02:35:41.703Z,97077.87
2018-07-25T02:38:10.468Z,97077.17
2018-07-25T02:40:39.321Z,97081.07
2018-07-25T02:43:08.067Z,97078.44
2018-07-25T02:45:41.760Z,97076.60
2018-07-25T02:48:10.562Z,97078.78
2018-07-25T02:50:39.315Z,97085.66
2018-07-25T02:53:08.211Z,97079.45
2018-07-25T02:55:37.059Z,97079.70
2018-07-25T02:58:05.994Z,97076.73
2018-07-25T03:00:35.416Z,97075.69
2018-07-25T03:03:04.512Z,97079.67
2018-07-25T03:05:33.341Z,97083.22
2018-07-25T03:08:02.048Z,97080.02
2018-07-25T03:10:30.815Z,97081.95
2018-07-25T03:12:59.564Z,97074.98
2018-07-25T03:15:28.574Z,97076.70
2018-07-25T03:17:57.505Z,97075.17
2018-07-25T03:20:27.399Z,97081.70
2018-07-25T03:22:56.279Z,97080.78
2018-07-25T03:25:25.032Z,97077.23
2018-07-25T03:27:53.844Z,97083.76
2018-07-25T03:30:22.535Z,97089.48
2018-07-25T03:32:51.972Z,97090.85
2018-07-25T03:35:20.734Z,97092.69
2018-07-25T03:37:49.440Z,97098.91
2018-07-25T03:40:18.197Z,97094.31
2018-07-25T03:42:47.177Z,97102.20
2018-07-25T03:45:16.661Z,97101.88
2018-07-25T03:47:45.372Z,97104.16
2018-07-25T03:50:14.096Z,97102.55
2018-07-25T03:52:43.117Z,97098.33
2018-07-25T03:55:11.885Z,97105.66
2018-07-25T03:57:41.384Z,97104.73
2018-07-25T04:00:10.900Z,97105.17
2018-07-25T04:02:39.655Z,97100.36
2018-07-25T04:05:08.686Z,97099.79
2018-07-25T04:07:37.417Z,97104.86
2018-07-25T04:10:06.891Z,97105.05
2018-07-25T04:12:36.563Z,97112.41
2018-07-25T04:15:05.355Z,97106.09
2018-07-25T04:17:38.445Z,97103.66
2018-07-25T04:20:07.719Z,97101.37
2018-07-25T04:22:36.453Z,97098.64
2018-07-25T04:25:05.768Z,97102.29
2018-07-25T04:27:35.082Z,97101.81
2018-07-25T04:30:04.483Z,97095.63
2018-07-25T04:32:33.338Z,97101.81
2018-07-25T04:35:02.680Z,97099.09
2018-07-25T04:37:31.655Z,97094.72
2018-07-25T04:40:00.376Z,97094.61
2018-07-25T04:42:29.110Z,97099.44
2018-07-25T04:44:57.824Z,97102.63
2018-07-25T04:47:26.926Z,97099.36
2018-07-25T04:49:56.071Z,97093.53
2018-07-25T04:52:26.463Z,97102.12
2018-07-25T04:54:55.235Z,97096.64
2018-07-25T04:57:25.152Z,97096.85
2018-07-25T04:59:54.288Z,97101.07
2018-07-25T05:02:23.057Z,97108.86
2018-07-25T05:04:52.105Z,97112.19
2018-07-25T05:07:20.847Z,97113.52
2018-07-25T05:09:49.858Z,97109.52
2018-07-25T05:12:18.606Z,97112.50
2018-07-25T05:14:47.339Z,97115.01
2018-07-25T05:17:16.083Z,97112.37
2018-07-25T05:19:44.972Z,97116.61
2018-07-25T05:22:13.741Z,97118.55
2018-07-25T05:24:42.586Z,97120.97
2018-07-25T05:27:11.440Z,97119.13
2018-07-25T05:29:40.178Z,97119.95
2018-07-25T05:32:09.176Z,97121.39
2018-07-25T05:34:37.899Z,97124.16
2018-07-25T05:37:06.638Z,97120.59
2018-07-25T05:39:35.351Z,97120.47
2018-07-25T05:42:04.275Z,97111.27
2018-07-25T05:44:33.176Z,97119.89
2018-07-25T05:47:01.897Z,97125.05
2018-07-25T05:49:30.762Z,97122.52
2018-07-25T05:51:59.489Z,97124.57
2018-07-25T05:54:28.802Z,97114.70
2018-07-25T05:56:57.693Z,97124.22
2018-07-25T05:59:26.472Z,97126.14
2018-07-25T06:01:55.212Z,97125.79
2018-07-25T06:04:24.086Z,97131.62
2018-07-25T06:06:52.893Z,97123.69
2018-07-25T06:09:21.647Z,97130.19
2018-07-25T06:11:50.503Z,97125.25
2018-07-25T06:14:19.461Z,97126.26
2018-07-25T06:16:48.484Z,97127.52
2018-07-25T06:19:17.256Z,97116.84
2018-07-25T06:21:46.000Z,97120.94
2018-07-25T06:24:14.758Z,97125.62
2018-07-25T06:26:43.474Z,97120.66
2018-07-25T06:29:12.230Z,97124.77
2018-07-25T06:31:41.161Z,97118.08
2018-07-25T06:34:09.923Z,97122.75
2018-07-25T06:36:38.697Z,97130.52
2018-07-25T06:39:10.037Z,97122.46
2018-07-25T06:41:38.843Z,97125.78
2018-07-25T06:44:07.871Z,97123.66
2018-07-25T06:46:36.584Z,97132.38
2018-07-25T06:49:05.992Z,97126.97
2018-07-25T06:51:34.937Z,97130.39
2018-07-25T06:54:03.702Z,97127.17
2018-07-25T06:56:33.172Z,97134.70
2018-07-25T06:59:01.890Z,97131.72
2018-07-25T07:01:30.933Z,97131.32
2018-07-25T07:03:59.827Z,97133.27
2018-07-25T07:06:28.591Z,97127.30
2018-07-25T07:08:57.483Z,97128.78
2018-07-25T07:11:26.301Z,97116.55
2018-07-25T07:13:55.217Z,97124.50
2018-07-25T07:16:24.875Z,97132.42
2018-07-25T07:18:53.698Z,97124.18
2018-07-25T07:21:22.484Z,97125.35
2018-07-25T07:23:51.245Z,97128.58
2018-07-25T07:26:20.332Z,97125.34
2018-07-25T07:28:49.156Z,97128.67
2018-07-25T07:31:18.422Z,97131.70
2018-07-25T07:33:47.737Z,97124.66
2018-07-25T07:36:19.051Z,97123.55
2018-07-25T07:38:47.949Z,97127.05
2018-07-25T07:41:16.841Z,97125.22
2018-07-25T07:43:45.667Z,97124.55
2018-07-25T07:46:16.112Z,97127.85
2018-07-25T07:48:45.917Z,97122.02
2018-07-25T07:51:14.767Z,97123.23
2018-07-25T07:53:44.329Z,97125.22
2018-07-25T07:56:14.065Z,97125.69
2018-07-25T07:58:43.087Z,97122.98
2018-07-25T08:01:11.927Z,97125.17
2018-07-25T08:03:41.339Z,97116.62
2018-07-25T08:06:13.033Z,97114.70
2018-07-25T08:08:41.821Z,97116.48
2018-07-25T08:11:12.865Z,97115.13
2018-07-25T08:13:42.112Z,97116.66
2018-07-25T08:16:10.861Z,97119.44
2018-07-25T08:18:39.808Z,97116.45
2018-07-25T08:21:09.151Z,97113.48
2018-07-25T08:23:37.856Z,97115.54
2018-07-25T08:26:06.763Z,97123.05
2018-07-25T08:28:35.523Z,97114.60
2018-07-25T08:31:04.247Z,97107.23
2018-07-25T08:33:34.427Z,97113.14
2018-07-25T08:36:03.235Z,97118.91
2018-07-25T08:38:43.588Z,97118.09
2018-07-25T08:41:12.407Z,97117.16
2018-07-25T08:43:42.244Z,97111.59
2018-07-25T08:46:11.910Z,97116.22
2018-07-25T08:48:40.763Z,97107.66
2018-07-25T08:51:09.559Z,97109.70
2018-07-25T08:53:39.177Z,97108.62
2018-07-25T08:56:08.116Z,97106.72
2018-07-25T08:58:36.976Z,97113.23
2018-07-25T09:01:05.738Z,97110.13
2018-07-25T09:03:34.530Z,97108.68
2018-07-25T09:06:03.374Z,97100.25
2018-07-25T09:08:32.895Z,97099.28
2018-07-25T09:11:02.750Z,97100.11
2018-07-25T09:13:31.466Z,97107.34
2018-07-25T09:16:00.426Z,97105.07
2018-07-25T09:18:29.177Z,97106.45
2018-07-25T09:20:58.752Z,97099.61
2018-07-25T09:23:27.533Z,97093.20
2018-07-25T09:25:56.309Z,97086.97
2018-07-25T09:28:25.040Z,97089.68
2018-07-25T09:30:55.346Z,97085.33
2018-07-25T09:33:24.895Z,97079.34
2018-07-25T09:35:53.656Z,97088.73
2018-07-25T09:38:22.466Z,97074.45
2018-07-25T09:40:51.225Z,97083.19
2018-07-25T09:43:20.702Z,97071.88
2018-07-25T09:45:49.470Z,97077.20
2018-07-25T09:48:18.425Z,97077.45
2018-07-25T09:50:47.914Z,97073.36
2018-07-25T09:53:17.443Z,97073.22
2018-07-25T09:55:47.264Z,97073.78
2018-07-25T09:58:16.628Z,97067.97
2018-07-25T10:00:47.560Z,97068.52
2018-07-25T10:03:16.481Z,97065.56
2018-07-25T10:05:45.656Z,97071.42
2018-07-25T10:08:15.111Z,97061.63
2018-07-25T10:10:44.887Z,97055.94
2018-07-25T10:13:14.006Z,97061.09
2018-07-25T10:15:45.098Z,97062.75
2018-07-25T10:18:15.049Z,97060.30
2018-07-25T10:20:44.993Z,97060.03
2018-07-25T10:23:14.080Z,97063.30
2018-07-25T10:25:43.007Z,97052.96
2018-07-25T10:28:11.931Z,97047.79
2018-07-25T10:30:40.695Z,97049.03
2018-07-25T10:33:09.546Z,97050.70
2018-07-25T10:35:38.291Z,97056.66
2018-07-25T10:38:07.293Z,97054.32
2018-07-25T10:40:36.999Z,97050.76
2018-07-25T10:43:05.735Z,97059.23
2018-07-25T10:45:34.553Z,97053.16
2018-07-25T10:48:03.353Z,97035.78
2018-07-25T10:50:32.980Z,97039.15
2018-07-25T10:53:02.398Z,97042.18
2018-07-25T10:55:31.444Z,97037.56
2018-07-25T10:58:00.318Z,97045.86
2018-07-25T11:00:29.205Z,97035.52
2018-07-25T11:02:58.129Z,97038.83
2018-07-25T11:05:26.835Z,97043.48
2018-07-25T11:07:55.723Z,97036.06
2018-07-25T11:10:24.498Z,97023.84
2018-07-25T11:12:53.343Z,97022.31
2018-07-25T11:15:22.124Z,97016.95
2018-07-25T11:17:51.006Z,97018.21
2018-07-25T11:20:19.784Z,97014.99
2018-07-25T11:22:48.585Z,97019.18
2018-07-25T11:25:17.330Z,97018.36
2018-07-25T11:27:46.106Z,97019.82
2018-07-25T11:30:14.840Z,97022.84
2018-07-25T11:32:43.604Z,97016.89
2018-07-25T11:35:12.388Z,97012.68
2018-07-25T11:37:41.118Z,97011.72
2018-07-25T11:40:09.945Z,97011.03
2018-07-25T11:42:38.718Z,97010.07
2018-07-25T11:45:07.446Z,97021.95
2018-07-25T11:47:36.350Z,97009.30
2018-07-25T11:50:05.251Z,97008.47
2018-07-25T11:52:35.085Z,97007.36
2018-07-25T11:55:05.223Z,97007.80
2018-07-25T11:57:34.406Z,97007.53
2018-07-25T12:00:03.421Z,97001.28
2018-07-25T12:02:32.504Z,97004.84
2018-07-25T12:05:01.863Z,97010.02
2018-07-25T12:07:30.909Z,97009.86
2018-07-25T12:09:59.888Z,97005.80
2018-07-25T12:12:29.847Z,97007.97
2018-07-25T12:14:59.078Z,97006.05
2018-07-25T12:17:28.438Z,97010.28
2018-07-25T12:19:57.618Z,97004.56
2018-07-25T12:22:27.036Z,96995.84
2018-07-25T12:24:56.235Z,96992.95
2018-07-25T12:27:25.453Z,96986.55
2018-07-25T12:29:54.332Z,96990.66
2018-07-25T12:32:23.737Z,97007.81
2018-07-25T12:34:53.365Z,97007.71
2018-07-25T12:37:22.634Z,97008.53
2018-07-25T12:39:53.238Z,97001.86
2018-07-25T12:42:22.794Z,96998.20
2018-07-25T12:44:53.097Z,97005.96
2018-07-25T12:47:21.871Z,97010.60
2018-07-25T12:49:51.180Z,97005.02
2018-07-25T12:52:20.295Z,97013.06
2018-07-25T12:54:49.434Z,97007.06
2018-07-25T12:57:19.411Z,97009.38
2018-07-25T12:59:48.552Z,97011.83
2018-07-25T13:02:17.893Z,97005.98
2018-07-25T13:04:47.162Z,97012.78
2018-07-25T13:07:16.335Z,97011.28
2018-07-25T13:09:45.132Z,97013.21
2018-07-25T13:12:14.588Z,97017.83
2018-07-25T13:14:43.990Z,97012.13
2018-07-25T13:17:14.104Z,97007.63
2018-07-25T13:19:43.043Z,97002.42
2018-07-25T13:22:13.464Z,96997.52
2018-07-25T13:24:44.150Z,96985.38
2018-07-25T13:27:15.726Z,96977.77
2018-07-25T13:29:45.991Z,96974.33
2018-07-25T13:32:14.908Z,96970.38
2018-07-25T13:34:43.740Z,96970.53
2018-07-25T13:37:12.790Z,96966.43
2018-07-25T13:39:42.341Z,96973.53
2018-07-25T13:42:11.114Z,96970.53
2018-07-25T13:44:39.917Z,96966.72
2018-07-25T13:47:09.002Z,96964.38
2018-07-25T13:49:37.863Z,96963.59
2018-07-25T13:52:06.746Z,96965.48
